MOOI WEER BOXTEL

Weerstation in Boxtel

Actuele weerinformatie en voorspellingen


Onweer radar Meer informatie blitzortung!


Regen radar Meer informatie rain snow radar


Meer informatie

Template documentation
and downloads

Weblog Hans on Experience

Profiel Hans Mestrum



Het weer levert geen direct gevaar op.    Er zijn geen waarschuwingen afgegeven.

METAR rapporten vliegvelden

   
EHEH - Eindhoven
Gewijzigd: 21-08-2018 00:25
Bewolking  
Bewolking  
   Wind: NW 3.7 km/h
Wind: NW 3.7 km/h
Temperatuur: 20°C
Dauwpunt: 17°C
Vochtigheid: 83%
Barometer: 1020 hPa
Bewolking: Bewolking
Zicht: meer dan 10 km
Bewolking: Licht bewolkt 5200 ft,
Bewolking 6100 ft
EHEH 202225Z AUTO 31002KT 9999 FEW052 OVC061 20/17 Q1020 BLU
EHVK - Volkel
Gewijzigd: 21-08-2018 00:25
Bewolking  
Bewolking  
   Wind: Noorden 3.7 km/h
Wind: Noorden 3.7 km/h
Temperatuur: 19°C
Dauwpunt: 16°C
Vochtigheid: 83%
Barometer: 1020 hPa
Bewolking: Bewolking
Zicht: meer dan 10 km
Bewolking: Bewolking 6400 ft
EHVK 202225Z AUTO 36002KT 9999 OVC064 19/16 Q1020 BLU
EBAW - Antwerpen
Gewijzigd: 21-08-2018 00:20
Grotendeels bewolkt  
Grotendeels bewolkt  
   Wind: varieert 1.9 km/h
Wind: varieert 1.9 km/h
Temperatuur: 20°C
Dauwpunt: 17°C
Vochtigheid: 83%
Barometer: 1021 hPa
Bewolking: Grotendeels bewolkt
Zicht: meer dan 10 km
Bewolking: Grotendeels bewolkt 4800 ft
EBAW 202220Z AUTO VRB01KT 9999 // BKN048/// 20/17 Q1021
EHBK - Maastricht
Gewijzigd: 21-08-2018 00:25
Bewolking  
Bewolking  
   Wind: NNW 5.6 km/h
Wind: NNW 5.6 km/h
Temperatuur: 20°C
Dauwpunt: 17°C
Vochtigheid: 83%
Barometer: 1021 hPa
Bewolking: Bewolking
Zicht: meer dan 10 km
Bewolking: Gedeeltelijk bewolkt 2400 ft,
Grotendeels bewolkt 4300 ft,
Bewolking 4900 ft
EHBK 202225Z AUTO 34003KT 320V020 9999 SCT024 BKN043 OVC049 20/17 Q1021
ELLX - Luxemburg
Gewijzigd: 21-08-2018 00:20
Bewolking  
Bewolking  
   Wind: NNW 9.3 km/h
Wind: NNW 9.3 km/h
Temperatuur: 20°C
Dauwpunt: 16°C
Vochtigheid: 78%
Barometer: 1022 hPa
Bewolking: Bewolking
Zicht: meer dan 10 km
Bewolking: Bewolking 5500 ft
ELLX 202220Z AUTO 34005KT 9999 OVC055/// 20/16 Q1022 NOSIG
 

Script ontwikkeld door  Saratoga-weather.org Aangepast voor de template door  Weerstation Leuven

U vindt ons ook hier:

Het Weer Aktueel

UK Metoffice

European Weather Network

Weather Underground

AWEKAS

Citizen Weather Observer Program (CWOP)

HAMweather, WeatherForYou, PWS Weather

Apparatuur in gebruik:

Weerstation
Davis Vue ISS

Weerprogramma
Meteobridge

Weercomputer
Asus WL -330N3G

Webleverancier
Weerhuisje.nl

Davis Vue ISS

Meteobridge

Asus WL -330N3G

Weerhuisje.nl